sensor_id;sensor_type;location;lat;lon;timestamp;temperature;humidity
702;DHT22;334;48.808;9.222;2022-08-03T00:00:51;25.60;1.00
702;DHT22;334;48.808;9.222;2022-08-03T00:01:53;25.50;1.00
702;DHT22;334;48.808;9.222;2022-08-03T00:02:55;25.50;1.00
702;DHT22;334;48.808;9.222;2022-08-03T00:03:57;25.50;1.00
702;DHT22;334;48.808;9.222;2022-08-03T00:04:58;25.60;1.00
702;DHT22;334;48.808;9.222;2022-08-03T00:06:00;25.50;1.00
702;DHT22;334;48.808;9.222;2022-08-03T00:07:05;25.40;1.00
702;DHT22;334;48.808;9.222;2022-08-03T00:08:07;25.40;1.00
702;DHT22;334;48.808;9.222;2022-08-03T00:09:09;25.40;1.00
702;DHT22;334;48.808;9.222;2022-08-03T00:10:12;25.40;1.00
702;DHT22;334;48.808;9.222;2022-08-03T00:11:15;25.40;1.00
702;DHT22;334;48.808;9.222;2022-08-03T00:12:16;25.40;1.00
702;DHT22;334;48.808;9.222;2022-08-03T00:13:19;25.40;1.00
702;DHT22;334;48.808;9.222;2022-08-03T00:14:21;25.40;1.00
702;DHT22;334;48.808;9.222;2022-08-03T00:15:22;25.40;1.00
702;DHT22;334;48.808;9.222;2022-08-03T00:16:26;25.40;1.00
702;DHT22;334;48.808;9.222;2022-08-03T00:17:28;25.40;1.00
702;DHT22;334;48.808;9.222;2022-08-03T00:18:50;25.40;1.00
702;DHT22;334;48.808;9.222;2022-08-03T00:19:52;25.30;1.00
702;DHT22;334;48.808;9.222;2022-08-03T00:20:54;25.30;1.00
702;DHT22;334;48.808;9.222;2022-08-03T00:21:56;25.30;1.00
702;DHT22;334;48.808;9.222;2022-08-03T00:22:57;25.30;1.00
702;DHT22;334;48.808;9.222;2022-08-03T00:23:59;25.30;1.00
702;DHT22;334;48.808;9.222;2022-08-03T00:25:01;25.30;1.00
702;DHT22;334;48.808;9.222;2022-08-03T00:26:03;25.30;1.00
702;DHT22;334;48.808;9.222;2022-08-03T00:27:04;25.30;1.00
702;DHT22;334;48.808;9.222;2022-08-03T00:28:06;25.20;1.00
702;DHT22;334;48.808;9.222;2022-08-03T00:29:09;25.20;1.00
702;DHT22;334;48.808;9.222;2022-08-03T00:30:10;25.20;1.00
702;DHT22;334;48.808;9.222;2022-08-03T00:31:14;25.20;1.00
702;DHT22;334;48.808;9.222;2022-08-03T00:32:16;25.20;1.00
702;DHT22;334;48.808;9.222;2022-08-03T00:33:19;25.20;1.00
702;DHT22;334;48.808;9.222;2022-08-03T00:34:22;25.30;1.00
702;DHT22;334;48.808;9.222;2022-08-03T00:35:44;25.20;1.00
702;DHT22;334;48.808;9.222;2022-08-03T00:36:51;25.20;1.00
702;DHT22;334;48.808;9.222;2022-08-03T00:37:53;25.20;1.00
702;DHT22;334;48.808;9.222;2022-08-03T00:38:55;25.10;1.00
702;DHT22;334;48.808;9.222;2022-08-03T00:39:57;25.30;1.00
702;DHT22;334;48.808;9.222;2022-08-03T00:41:00;25.10;1.00
702;DHT22;334;48.808;9.222;2022-08-03T00:42:03;25.10;1.00
702;DHT22;334;48.808;9.222;2022-08-03T00:43:06;25.10;1.00
702;DHT22;334;48.808;9.222;2022-08-03T00:44:08;25.10;1.00
702;DHT22;334;48.808;9.222;2022-08-03T00:45:09;25.10;1.00
702;DHT22;334;48.808;9.222;2022-08-03T00:46:12;25.10;1.00
702;DHT22;334;48.808;9.222;2022-08-03T00:47:21;25.10;1.00
702;DHT22;334;48.808;9.222;2022-08-03T00:48:22;25.10;1.00
702;DHT22;334;48.808;9.222;2022-08-03T00:49:36;25.10;1.00
702;DHT22;334;48.808;9.222;2022-08-03T00:50:42;25.10;1.00
702;DHT22;334;48.808;9.222;2022-08-03T00:51:44;25.10;1.00
702;DHT22;334;48.808;9.222;2022-08-03T00:52:46;25.10;1.00
702;DHT22;334;48.808;9.222;2022-08-03T00:53:48;25.10;1.00
702;DHT22;334;48.808;9.222;2022-08-03T00:54:51;25.00;1.00
702;DHT22;334;48.808;9.222;2022-08-03T00:55:52;25.00;1.00
702;DHT22;334;48.808;9.222;2022-08-03T00:56:54;25.00;1.00
702;DHT22;334;48.808;9.222;2022-08-03T00:58:01;25.00;1.00
702;DHT22;334;48.808;9.222;2022-08-03T00:59:09;25.00;1.00
702;DHT22;334;48.808;9.222;2022-08-03T01:00:17;25.00;1.00
702;DHT22;334;48.808;9.222;2022-08-03T01:01:19;25.00;1.00
702;DHT22;334;48.808;9.222;2022-08-03T01:02:21;25.00;1.00
702;DHT22;334;48.808;9.222;2022-08-03T01:03:23;25.00;1.00
702;DHT22;334;48.808;9.222;2022-08-03T01:04:25;25.00;1.00
702;DHT22;334;48.808;9.222;2022-08-03T01:05:27;25.00;1.00
702;DHT22;334;48.808;9.222;2022-08-03T01:06:45;24.90;1.00
702;DHT22;334;48.808;9.222;2022-08-03T01:12:05;24.90;1.00
702;DHT22;334;48.808;9.222;2022-08-03T01:13:29;24.90;1.00
702;DHT22;334;48.808;9.222;2022-08-03T01:14:59;24.80;1.00
702;DHT22;334;48.808;9.222;2022-08-03T01:17:35;24.80;1.00
702;DHT22;334;48.808;9.222;2022-08-03T01:20:19;24.80;1.00
702;DHT22;334;48.808;9.222;2022-08-03T01:21:33;24.70;1.00
702;DHT22;334;48.808;9.222;2022-08-03T01:26:41;24.60;1.00
702;DHT22;334;48.808;9.222;2022-08-03T01:30:26;24.50;1.00
702;DHT22;334;48.808;9.222;2022-08-03T01:31:40;24.40;1.00
702;DHT22;334;48.808;9.222;2022-08-03T01:33:14;24.40;1.00
702;DHT22;334;48.808;9.222;2022-08-03T01:34:19;24.40;1.00
702;DHT22;334;48.808;9.222;2022-08-03T01:35:26;24.30;1.00
702;DHT22;334;48.808;9.222;2022-08-03T01:36:34;24.40;1.00
702;DHT22;334;48.808;9.222;2022-08-03T01:37:51;24.40;1.00
702;DHT22;334;48.808;9.222;2022-08-03T01:38:59;24.40;1.00
702;DHT22;334;48.808;9.222;2022-08-03T01:40:02;24.40;1.00
702;DHT22;334;48.808;9.222;2022-08-03T01:41:10;24.30;1.00
702;DHT22;334;48.808;9.222;2022-08-03T01:42:13;24.30;1.00
702;DHT22;334;48.808;9.222;2022-08-03T01:43:17;24.30;1.00
702;DHT22;334;48.808;9.222;2022-08-03T01:44:41;24.30;1.00
702;DHT22;334;48.808;9.222;2022-08-03T01:45:44;24.20;1.00
702;DHT22;334;48.808;9.222;2022-08-03T01:46:47;24.20;1.00
702;DHT22;334;48.808;9.222;2022-08-03T01:47:52;24.20;1.00
702;DHT22;334;48.808;9.222;2022-08-03T01:48:56;24.20;1.00
702;DHT22;334;48.808;9.222;2022-08-03T01:49:59;24.20;1.00
702;DHT22;334;48.808;9.222;2022-08-03T01:51:02;24.30;1.00
702;DHT22;334;48.808;9.222;2022-08-03T01:52:06;24.30;1.00
702;DHT22;334;48.808;9.222;2022-08-03T01:53:09;24.30;1.00
702;DHT22;334;48.808;9.222;2022-08-03T01:54:15;24.30;1.00
702;DHT22;334;48.808;9.222;2022-08-03T01:55:18;24.30;1.00
702;DHT22;334;48.808;9.222;2022-08-03T01:56:23;24.30;1.00
702;DHT22;334;48.808;9.222;2022-08-03T01:57:26;24.30;1.00
702;DHT22;334;48.808;9.222;2022-08-03T01:58:28;24.30;1.00
702;DHT22;334;48.808;9.222;2022-08-03T01:59:33;24.30;1.00
702;DHT22;334;48.808;9.222;2022-08-03T02:00:38;24.30;1.00
702;DHT22;334;48.808;9.222;2022-08-03T02:01:42;24.30;1.00
702;DHT22;334;48.808;9.222;2022-08-03T02:03:05;24.30;1.00
702;DHT22;334;48.808;9.222;2022-08-03T02:04:08;24.30;1.00
702;DHT22;334;48.808;9.222;2022-08-03T02:05:12;24.30;1.00
702;DHT22;334;48.808;9.222;2022-08-03T02:06:15;24.30;1.00
702;DHT22;334;48.808;9.222;2022-08-03T02:07:42;24.30;1.00
702;DHT22;334;48.808;9.222;2022-08-03T02:08:46;24.10;1.00
702;DHT22;334;48.808;9.222;2022-08-03T02:09:50;24.10;1.00
702;DHT22;334;48.808;9.222;2022-08-03T02:10:56;24.10;1.00
702;DHT22;334;48.808;9.222;2022-08-03T02:11:59;24.00;1.00
702;DHT22;334;48.808;9.222;2022-08-03T02:13:04;24.00;1.00
702;DHT22;334;48.808;9.222;2022-08-03T02:14:09;24.00;1.00
702;DHT22;334;48.808;9.222;2022-08-03T02:15:15;24.00;1.00
702;DHT22;334;48.808;9.222;2022-08-03T02:16:18;23.90;1.00
702;DHT22;334;48.808;9.222;2022-08-03T02:17:22;23.90;1.00
702;DHT22;334;48.808;9.222;2022-08-03T02:18:41;23.90;1.00
702;DHT22;334;48.808;9.222;2022-08-03T02:19:49;24.00;1.00
702;DHT22;334;48.808;9.222;2022-08-03T02:20:52;23.80;1.00
702;DHT22;334;48.808;9.222;2022-08-03T02:21:57;23.80;1.00
702;DHT22;334;48.808;9.222;2022-08-03T02:23:02;23.80;1.00
702;DHT22;334;48.808;9.222;2022-08-03T02:24:04;23.80;1.00
702;DHT22;334;48.808;9.222;2022-08-03T02:25:13;23.70;1.00
702;DHT22;334;48.808;9.222;2022-08-03T02:26:17;23.70;1.00
702;DHT22;334;48.808;9.222;2022-08-03T02:27:22;23.70;1.00
702;DHT22;334;48.808;9.222;2022-08-03T02:28:31;23.70;1.00
702;DHT22;334;48.808;9.222;2022-08-03T02:29:36;23.70;1.00
702;DHT22;334;48.808;9.222;2022-08-03T02:30:43;23.70;1.00
702;DHT22;334;48.808;9.222;2022-08-03T02:31:48;23.60;1.00
702;DHT22;334;48.808;9.222;2022-08-03T02:32:54;23.70;1.00
702;DHT22;334;48.808;9.222;2022-08-03T02:33:59;23.60;1.00
702;DHT22;334;48.808;9.222;2022-08-03T02:35:04;23.60;1.00
702;DHT22;334;48.808;9.222;2022-08-03T02:36:07;23.60;1.00
702;DHT22;334;48.808;9.222;2022-08-03T02:37:12;23.50;1.00
702;DHT22;334;48.808;9.222;2022-08-03T02:38:18;23.50;1.00
702;DHT22;334;48.808;9.222;2022-08-03T02:39:22;23.50;1.00
702;DHT22;334;48.808;9.222;2022-08-03T02:40:27;23.50;1.00
702;DHT22;334;48.808;9.222;2022-08-03T02:41:41;23.50;1.00
702;DHT22;334;48.808;9.222;2022-08-03T02:42:44;23.60;1.00
702;DHT22;334;48.808;9.222;2022-08-03T02:43:50;23.60;1.00
702;DHT22;334;48.808;9.222;2022-08-03T02:45:10;23.60;1.00
702;DHT22;334;48.808;9.222;2022-08-03T02:46:21;23.80;1.00
702;DHT22;334;48.808;9.222;2022-08-03T02:47:27;23.60;1.00
702;DHT22;334;48.808;9.222;2022-08-03T02:48:51;23.60;1.00
702;DHT22;334;48.808;9.222;2022-08-03T02:49:56;23.60;1.00
702;DHT22;334;48.808;9.222;2022-08-03T02:51:00;23.60;1.00
702;DHT22;334;48.808;9.222;2022-08-03T02:52:04;23.80;1.00
702;DHT22;334;48.808;9.222;2022-08-03T02:53:18;23.60;1.00
702;DHT22;334;48.808;9.222;2022-08-03T02:54:22;23.60;1.00
702;DHT22;334;48.808;9.222;2022-08-03T02:55:27;23.60;1.00
702;DHT22;334;48.808;9.222;2022-08-03T02:56:29;23.60;1.00
702;DHT22;334;48.808;9.222;2022-08-03T02:57:34;23.70;1.00
702;DHT22;334;48.808;9.222;2022-08-03T02:58:39;23.60;1.00
702;DHT22;334;48.808;9.222;2022-08-03T02:59:43;23.60;1.00
702;DHT22;334;48.808;9.222;2022-08-03T03:00:46;23.60;1.00
702;DHT22;334;48.808;9.222;2022-08-03T03:01:49;23.60;1.00
702;DHT22;334;48.808;9.222;2022-08-03T03:02:52;23.70;1.00
702;DHT22;334;48.808;9.222;2022-08-03T03:03:55;23.60;1.00
702;DHT22;334;48.808;9.222;2022-08-03T03:05:02;23.60;1.00
702;DHT22;334;48.808;9.222;2022-08-03T03:06:25;23.60;1.00
702;DHT22;334;48.808;9.222;2022-08-03T03:07:31;23.60;1.00
702;DHT22;334;48.808;9.222;2022-08-03T03:08:54;23.60;1.00
702;DHT22;334;48.808;9.222;2022-08-03T03:10:02;23.50;1.00
702;DHT22;334;48.808;9.222;2022-08-03T03:11:04;23.50;1.00
702;DHT22;334;48.808;9.222;2022-08-03T03:12:07;23.50;1.00
702;DHT22;334;48.808;9.222;2022-08-03T03:13:10;23.50;1.00
702;DHT22;334;48.808;9.222;2022-08-03T03:14:14;23.40;1.00
702;DHT22;334;48.808;9.222;2022-08-03T03:15:34;23.50;1.00
702;DHT22;334;48.808;9.222;2022-08-03T03:16:38;23.60;1.00
702;DHT22;334;48.808;9.222;2022-08-03T03:17:42;23.50;1.00
702;DHT22;334;48.808;9.222;2022-08-03T03:18:45;23.50;1.00
702;DHT22;334;48.808;9.222;2022-08-03T03:19:49;23.50;1.00
702;DHT22;334;48.808;9.222;2022-08-03T03:20:52;23.50;1.00
702;DHT22;334;48.808;9.222;2022-08-03T03:21:54;23.50;1.00
702;DHT22;334;48.808;9.222;2022-08-03T03:23:00;23.50;1.00
702;DHT22;334;48.808;9.222;2022-08-03T03:24:04;23.50;1.00
702;DHT22;334;48.808;9.222;2022-08-03T03:25:06;23.50;1.00
702;DHT22;334;48.808;9.222;2022-08-03T03:26:08;23.50;1.00
702;DHT22;334;48.808;9.222;2022-08-03T03:27:10;23.50;1.00
702;DHT22;334;48.808;9.222;2022-08-03T03:28:17;23.50;1.00
702;DHT22;334;48.808;9.222;2022-08-03T03:29:20;23.40;1.00
702;DHT22;334;48.808;9.222;2022-08-03T03:30:22;23.40;1.00
702;DHT22;334;48.808;9.222;2022-08-03T03:31:24;23.40;1.00
702;DHT22;334;48.808;9.222;2022-08-03T03:32:26;23.40;1.00
702;DHT22;334;48.808;9.222;2022-08-03T03:33:29;23.40;1.00
702;DHT22;334;48.808;9.222;2022-08-03T03:34:31;23.30;1.00
702;DHT22;334;48.808;9.222;2022-08-03T03:35:33;23.50;1.00
702;DHT22;334;48.808;9.222;2022-08-03T03:36:40;23.30;1.00
702;DHT22;334;48.808;9.222;2022-08-03T03:37:45;23.30;1.00
702;DHT22;334;48.808;9.222;2022-08-03T03:38:46;23.30;1.00
702;DHT22;334;48.808;9.222;2022-08-03T03:39:48;23.40;1.00
702;DHT22;334;48.808;9.222;2022-08-03T03:40:50;23.20;1.00
702;DHT22;334;48.808;9.222;2022-08-03T03:41:53;23.20;1.00
702;DHT22;334;48.808;9.222;2022-08-03T03:42:55;23.20;1.00
702;DHT22;334;48.808;9.222;2022-08-03T03:43:57;23.10;1.00
702;DHT22;334;48.808;9.222;2022-08-03T03:45:03;23.10;1.00
702;DHT22;334;48.808;9.222;2022-08-03T03:46:05;23.10;1.00
702;DHT22;334;48.808;9.222;2022-08-03T03:47:07;23.10;1.00
702;DHT22;334;48.808;9.222;2022-08-03T03:48:09;23.10;1.00
702;DHT22;334;48.808;9.222;2022-08-03T03:49:11;23.10;1.00
702;DHT22;334;48.808;9.222;2022-08-03T03:50:14;23.00;1.00
702;DHT22;334;48.808;9.222;2022-08-03T03:51:18;23.00;1.00
702;DHT22;334;48.808;9.222;2022-08-03T03:52:21;23.00;1.00
702;DHT22;334;48.808;9.222;2022-08-03T03:53:23;23.00;1.00
702;DHT22;334;48.808;9.222;2022-08-03T03:54:24;22.90;1.00
702;DHT22;334;48.808;9.222;2022-08-03T03:55:30;22.90;1.00
702;DHT22;334;48.808;9.222;2022-08-03T03:56:32;22.90;1.00
702;DHT22;334;48.808;9.222;2022-08-03T03:57:33;22.90;1.00
702;DHT22;334;48.808;9.222;2022-08-03T03:58:35;22.90;1.00
702;DHT22;334;48.808;9.222;2022-08-03T03:59:38;22.90;1.00
702;DHT22;334;48.808;9.222;2022-08-03T04:00:40;22.90;1.00
702;DHT22;334;48.808;9.222;2022-08-03T04:01:44;23.00;1.00
702;DHT22;334;48.808;9.222;2022-08-03T04:02:46;22.90;1.00
702;DHT22;334;48.808;9.222;2022-08-03T04:03:48;22.90;1.00
702;DHT22;334;48.808;9.222;2022-08-03T04:04:50;22.90;1.00
702;DHT22;334;48.808;9.222;2022-08-03T04:06:18;22.90;1.00
702;DHT22;334;48.808;9.222;2022-08-03T04:07:47;22.90;1.00
702;DHT22;334;48.808;9.222;2022-08-03T04:09:11;23.00;1.00
702;DHT22;334;48.808;9.222;2022-08-03T04:10:33;22.90;1.00
702;DHT22;334;48.808;9.222;2022-08-03T04:11:57;22.90;1.00
702;DHT22;334;48.808;9.222;2022-08-03T04:13:03;22.90;1.00
702;DHT22;334;48.808;9.222;2022-08-03T04:14:23;22.90;1.00
702;DHT22;334;48.808;9.222;2022-08-03T04:15:27;22.90;1.00
702;DHT22;334;48.808;9.222;2022-08-03T04:16:33;22.90;1.00
702;DHT22;334;48.808;9.222;2022-08-03T04:17:35;22.90;1.00
702;DHT22;334;48.808;9.222;2022-08-03T04:18:40;22.90;1.00
702;DHT22;334;48.808;9.222;2022-08-03T04:19:48;22.90;1.00
702;DHT22;334;48.808;9.222;2022-08-03T04:20:51;22.90;1.00
702;DHT22;334;48.808;9.222;2022-08-03T04:21:58;22.80;1.00
702;DHT22;334;48.808;9.222;2022-08-03T04:23:00;22.90;1.00
702;DHT22;334;48.808;9.222;2022-08-03T04:24:14;22.90;1.00
702;DHT22;334;48.808;9.222;2022-08-03T04:25:17;22.90;1.00
702;DHT22;334;48.808;9.222;2022-08-03T04:26:23;22.90;1.00
702;DHT22;334;48.808;9.222;2022-08-03T04:27:33;22.90;1.00
702;DHT22;334;48.808;9.222;2022-08-03T04:28:38;22.90;1.00
702;DHT22;334;48.808;9.222;2022-08-03T04:29:45;22.90;1.00
702;DHT22;334;48.808;9.222;2022-08-03T04:30:49;22.90;1.00
702;DHT22;334;48.808;9.222;2022-08-03T04:31:53;22.80;1.00
702;DHT22;334;48.808;9.222;2022-08-03T04:32:58;22.80;1.00
702;DHT22;334;48.808;9.222;2022-08-03T04:34:02;22.80;1.00
702;DHT22;334;48.808;9.222;2022-08-03T04:35:05;22.80;1.00
702;DHT22;334;48.808;9.222;2022-08-03T04:36:09;22.80;1.00
702;DHT22;334;48.808;9.222;2022-08-03T04:37:21;22.90;1.00
702;DHT22;334;48.808;9.222;2022-08-03T04:38:25;22.90;1.00
702;DHT22;334;48.808;9.222;2022-08-03T04:39:30;22.90;1.00
702;DHT22;334;48.808;9.222;2022-08-03T04:40:34;22.80;1.00
702;DHT22;334;48.808;9.222;2022-08-03T04:41:37;22.80;1.00
702;DHT22;334;48.808;9.222;2022-08-03T04:43:00;22.80;1.00
702;DHT22;334;48.808;9.222;2022-08-03T04:44:04;22.80;1.00
702;DHT22;334;48.808;9.222;2022-08-03T04:45:07;22.90;1.00
702;DHT22;334;48.808;9.222;2022-08-03T04:46:11;22.70;1.00
702;DHT22;334;48.808;9.222;2022-08-03T04:47:13;22.90;1.00
702;DHT22;334;48.808;9.222;2022-08-03T04:48:16;22.70;1.00
702;DHT22;334;48.808;9.222;2022-08-03T04:49:20;22.80;1.00
702;DHT22;334;48.808;9.222;2022-08-03T04:50:22;22.80;1.00
702;DHT22;334;48.808;9.222;2022-08-03T04:51:25;22.80;1.00
702;DHT22;334;48.808;9.222;2022-08-03T04:52:26;22.80;1.00
702;DHT22;334;48.808;9.222;2022-08-03T04:53:29;22.90;1.00
702;DHT22;334;48.808;9.222;2022-08-03T04:54:38;22.90;1.00
702;DHT22;334;48.808;9.222;2022-08-03T04:55:40;22.90;1.00
702;DHT22;334;48.808;9.222;2022-08-03T04:56:43;22.90;1.00
702;DHT22;334;48.808;9.222;2022-08-03T04:57:45;22.90;1.00
702;DHT22;334;48.808;9.222;2022-08-03T04:58:46;22.90;1.00
702;DHT22;334;48.808;9.222;2022-08-03T04:59:49;22.90;1.00
702;DHT22;334;48.808;9.222;2022-08-03T05:01:02;22.90;1.00
702;DHT22;334;48.808;9.222;2022-08-03T05:02:04;22.80;1.00
702;DHT22;334;48.808;9.222;2022-08-03T05:03:07;23.00;1.00
702;DHT22;334;48.808;9.222;2022-08-03T05:04:24;22.80;1.00
702;DHT22;334;48.808;9.222;2022-08-03T05:05:26;22.80;1.00
702;DHT22;334;48.808;9.222;2022-08-03T05:06:48;22.80;1.00
702;DHT22;334;48.808;9.222;2022-08-03T05:07:56;22.80;1.00
702;DHT22;334;48.808;9.222;2022-08-03T05:09:01;22.80;1.00
702;DHT22;334;48.808;9.222;2022-08-03T05:10:07;22.80;1.00
702;DHT22;334;48.808;9.222;2022-08-03T05:11:16;22.70;1.00
702;DHT22;334;48.808;9.222;2022-08-03T05:12:19;22.70;1.00
702;DHT22;334;48.808;9.222;2022-08-03T05:13:21;22.80;1.00
702;DHT22;334;48.808;9.222;2022-08-03T05:14:23;22.80;1.00
702;DHT22;334;48.808;9.222;2022-08-03T05:15:28;22.80;1.00
702;DHT22;334;48.808;9.222;2022-08-03T05:16:30;22.80;1.00
702;DHT22;334;48.808;9.222;2022-08-03T05:17:32;22.80;1.00
702;DHT22;334;48.808;9.222;2022-08-03T05:18:34;22.80;1.00
702;DHT22;334;48.808;9.222;2022-08-03T05:19:36;22.80;1.00
702;DHT22;334;48.808;9.222;2022-08-03T05:20:38;22.80;1.00
702;DHT22;334;48.808;9.222;2022-08-03T05:21:40;22.90;1.00
702;DHT22;334;48.808;9.222;2022-08-03T05:22:53;22.90;1.00
702;DHT22;334;48.808;9.222;2022-08-03T05:23:55;23.10;1.00
702;DHT22;334;48.808;9.222;2022-08-03T05:24:57;23.00;1.00
702;DHT22;334;48.808;9.222;2022-08-03T05:25:58;23.00;1.00
702;DHT22;334;48.808;9.222;2022-08-03T05:27:00;23.10;1.00
702;DHT22;334;48.808;9.222;2022-08-03T05:28:02;23.10;1.00
702;DHT22;334;48.808;9.222;2022-08-03T05:29:04;23.10;1.00
702;DHT22;334;48.808;9.222;2022-08-03T05:30:06;23.20;1.00
702;DHT22;334;48.808;9.222;2022-08-03T05:31:29;23.20;1.00
702;DHT22;334;48.808;9.222;2022-08-03T05:32:31;23.30;1.00
702;DHT22;334;48.808;9.222;2022-08-03T05:33:32;23.30;1.00
702;DHT22;334;48.808;9.222;2022-08-03T05:34:34;23.30;1.00
702;DHT22;334;48.808;9.222;2022-08-03T05:35:36;23.30;1.00
702;DHT22;334;48.808;9.222;2022-08-03T05:36:59;23.40;1.00
702;DHT22;334;48.808;9.222;2022-08-03T05:38:02;23.40;1.00
702;DHT22;334;48.808;9.222;2022-08-03T05:39:04;23.50;1.00
702;DHT22;334;48.808;9.222;2022-08-03T05:40:06;23.50;1.00
702;DHT22;334;48.808;9.222;2022-08-03T05:41:08;23.50;1.00
702;DHT22;334;48.808;9.222;2022-08-03T05:42:36;23.50;1.00
702;DHT22;334;48.808;9.222;2022-08-03T05:43:38;23.60;1.00
702;DHT22;334;48.808;9.222;2022-08-03T05:44:39;23.60;1.00
702;DHT22;334;48.808;9.222;2022-08-03T05:45:42;23.60;1.00
702;DHT22;334;48.808;9.222;2022-08-03T05:46:44;23.70;1.00
702;DHT22;334;48.808;9.222;2022-08-03T05:47:46;23.70;1.00
702;DHT22;334;48.808;9.222;2022-08-03T05:48:49;23.80;1.00
702;DHT22;334;48.808;9.222;2022-08-03T05:49:51;23.90;1.00
702;DHT22;334;48.808;9.222;2022-08-03T05:50:53;24.00;1.00
702;DHT22;334;48.808;9.222;2022-08-03T05:51:54;24.10;1.00
702;DHT22;334;48.808;9.222;2022-08-03T05:53:14;24.10;1.00
702;DHT22;334;48.808;9.222;2022-08-03T05:54:16;24.30;1.00
702;DHT22;334;48.808;9.222;2022-08-03T05:55:17;24.20;1.00
702;DHT22;334;48.808;9.222;2022-08-03T05:56:23;24.30;1.00
702;DHT22;334;48.808;9.222;2022-08-03T05:57:26;24.40;1.00
702;DHT22;334;48.808;9.222;2022-08-03T05:58:29;24.50;1.00
702;DHT22;334;48.808;9.222;2022-08-03T05:59:34;24.70;1.00
702;DHT22;334;48.808;9.222;2022-08-03T06:00:39;24.70;1.00
702;DHT22;334;48.808;9.222;2022-08-03T06:01:41;24.80;1.00
702;DHT22;334;48.808;9.222;2022-08-03T06:02:43;24.90;1.00
702;DHT22;334;48.808;9.222;2022-08-03T06:03:45;25.00;1.00
702;DHT22;334;48.808;9.222;2022-08-03T06:04:47;25.20;1.00
702;DHT22;334;48.808;9.222;2022-08-03T06:05:49;25.30;1.00
702;DHT22;334;48.808;9.222;2022-08-03T06:07:01;25.40;1.00
702;DHT22;334;48.808;9.222;2022-08-03T06:08:03;25.50;1.00
702;DHT22;334;48.808;9.222;2022-08-03T06:09:04;25.60;1.00
702;DHT22;334;48.808;9.222;2022-08-03T06:10:07;25.80;1.00
702;DHT22;334;48.808;9.222;2022-08-03T06:11:29;25.70;1.00
702;DHT22;334;48.808;9.222;2022-08-03T06:12:31;25.90;1.00
702;DHT22;334;48.808;9.222;2022-08-03T06:13:36;25.80;1.00
702;DHT22;334;48.808;9.222;2022-08-03T06:14:40;25.70;1.00
702;DHT22;334;48.808;9.222;2022-08-03T06:15:42;25.70;1.00
702;DHT22;334;48.808;9.222;2022-08-03T06:16:43;25.70;1.00
702;DHT22;334;48.808;9.222;2022-08-03T06:17:49;25.90;1.00
702;DHT22;334;48.808;9.222;2022-08-03T06:18:51;25.90;1.00
702;DHT22;334;48.808;9.222;2022-08-03T06:19:54;25.70;1.00
702;DHT22;334;48.808;9.222;2022-08-03T06:20:56;25.70;1.00
702;DHT22;334;48.808;9.222;2022-08-03T06:22:15;25.60;1.00
702;DHT22;334;48.808;9.222;2022-08-03T06:23:17;25.60;1.00
702;DHT22;334;48.808;9.222;2022-08-03T06:24:22;25.80;1.00
702;DHT22;334;48.808;9.222;2022-08-03T06:25:25;25.90;1.00
702;DHT22;334;48.808;9.222;2022-08-03T06:26:31;25.80;1.00
702;DHT22;334;48.808;9.222;2022-08-03T06:27:34;25.80;1.00
702;DHT22;334;48.808;9.222;2022-08-03T06:28:38;25.80;1.00
702;DHT22;334;48.808;9.222;2022-08-03T06:29:53;25.90;1.00
702;DHT22;334;48.808;9.222;2022-08-03T06:30:56;25.80;1.00
702;DHT22;334;48.808;9.222;2022-08-03T06:31:58;25.80;1.00
702;DHT22;334;48.808;9.222;2022-08-03T06:33:00;25.80;1.00
702;DHT22;334;48.808;9.222;2022-08-03T06:34:03;25.80;1.00
702;DHT22;334;48.808;9.222;2022-08-03T06:35:25;25.90;1.00
702;DHT22;334;48.808;9.222;2022-08-03T06:36:28;25.90;1.00
702;DHT22;334;48.808;9.222;2022-08-03T06:37:44;25.90;1.00
702;DHT22;334;48.808;9.222;2022-08-03T06:38:46;25.90;1.00
702;DHT22;334;48.808;9.222;2022-08-03T06:39:49;26.00;1.00
702;DHT22;334;48.808;9.222;2022-08-03T06:40:51;26.00;1.00
702;DHT22;334;48.808;9.222;2022-08-03T06:41:53;25.90;1.00
702;DHT22;334;48.808;9.222;2022-08-03T06:42:59;26.00;1.00
702;DHT22;334;48.808;9.222;2022-08-03T06:44:01;26.00;1.00
702;DHT22;334;48.808;9.222;2022-08-03T06:45:06;26.00;1.00
702;DHT22;334;48.808;9.222;2022-08-03T06:46:09;26.00;1.00
702;DHT22;334;48.808;9.222;2022-08-03T06:47:11;26.10;1.00
702;DHT22;334;48.808;9.222;2022-08-03T06:48:13;26.00;1.00
702;DHT22;334;48.808;9.222;2022-08-03T06:49:14;26.00;1.00
702;DHT22;334;48.808;9.222;2022-08-03T06:50:17;26.00;1.00
702;DHT22;334;48.808;9.222;2022-08-03T06:51:26;26.00;1.00
702;DHT22;334;48.808;9.222;2022-08-03T06:52:48;25.90;1.00
702;DHT22;334;48.808;9.222;2022-08-03T06:53:49;26.10;1.00
702;DHT22;334;48.808;9.222;2022-08-03T06:54:51;26.10;1.00
702;DHT22;334;48.808;9.222;2022-08-03T06:55:53;26.10;1.00
702;DHT22;334;48.808;9.222;2022-08-03T06:56:55;26.20;1.00
702;DHT22;334;48.808;9.222;2022-08-03T06:57:58;26.10;1.00
702;DHT22;334;48.808;9.222;2022-08-03T06:59:04;26.10;1.00
702;DHT22;334;48.808;9.222;2022-08-03T07:00:06;26.20;1.00
702;DHT22;334;48.808;9.222;2022-08-03T07:01:13;26.10;1.00
702;DHT22;334;48.808;9.222;2022-08-03T07:02:19;26.10;1.00
702;DHT22;334;48.808;9.222;2022-08-03T07:03:21;26.10;1.00
702;DHT22;334;48.808;9.222;2022-08-03T07:04:23;26.10;1.00
702;DHT22;334;48.808;9.222;2022-08-03T07:05:25;26.10;1.00
702;DHT22;334;48.808;9.222;2022-08-03T07:06:26;26.10;1.00
702;DHT22;334;48.808;9.222;2022-08-03T08:21:27;25.70;1.00
702;DHT22;334;48.808;9.222;2022-08-03T08:22:49;25.70;1.00
702;DHT22;334;48.808;9.222;2022-08-03T08:23:52;25.80;1.00
702;DHT22;334;48.808;9.222;2022-08-03T08:24:58;25.80;1.00
702;DHT22;334;48.808;9.222;2022-08-03T08:26:02;26.00;1.00
702;DHT22;334;48.808;9.222;2022-08-03T08:27:03;26.10;1.00
702;DHT22;334;48.808;9.222;2022-08-03T08:28:05;26.20;1.00
702;DHT22;334;48.808;9.222;2022-08-03T08:29:27;26.30;1.00
702;DHT22;334;48.808;9.222;2022-08-03T08:30:31;26.50;1.00
702;DHT22;334;48.808;9.222;2022-08-03T08:31:33;26.70;1.00
702;DHT22;334;48.808;9.222;2022-08-03T08:32:35;26.80;1.00
702;DHT22;334;48.808;9.222;2022-08-03T08:33:37;27.10;1.00
702;DHT22;334;48.808;9.222;2022-08-03T08:34:59;27.10;1.00
702;DHT22;334;48.808;9.222;2022-08-03T08:36:03;27.20;1.00
702;DHT22;334;48.808;9.222;2022-08-03T08:37:05;27.30;1.00
702;DHT22;334;48.808;9.222;2022-08-03T08:38:06;27.60;1.00
702;DHT22;334;48.808;9.222;2022-08-03T08:39:08;27.60;1.00
702;DHT22;334;48.808;9.222;2022-08-03T08:40:20;27.60;1.00
702;DHT22;334;48.808;9.222;2022-08-03T08:41:22;27.70;1.00
702;DHT22;334;48.808;9.222;2022-08-03T08:42:32;27.80;1.00
702;DHT22;334;48.808;9.222;2022-08-03T08:43:34;27.90;1.00
702;DHT22;334;48.808;9.222;2022-08-03T08:44:36;28.00;1.00
702;DHT22;334;48.808;9.222;2022-08-03T08:45:37;28.10;1.00
702;DHT22;334;48.808;9.222;2022-08-03T08:46:41;28.10;1.00
702;DHT22;334;48.808;9.222;2022-08-03T08:47:45;28.20;1.00
702;DHT22;334;48.808;9.222;2022-08-03T08:48:53;28.20;1.00
702;DHT22;334;48.808;9.222;2022-08-03T08:49:57;28.30;1.00
702;DHT22;334;48.808;9.222;2022-08-03T08:51:11;28.50;1.00
702;DHT22;334;48.808;9.222;2022-08-03T08:52:13;28.50;1.00
702;DHT22;334;48.808;9.222;2022-08-03T08:53:27;28.50;1.00
702;DHT22;334;48.808;9.222;2022-08-03T08:54:30;28.60;1.00
702;DHT22;334;48.808;9.222;2022-08-03T08:55:34;28.80;1.00
702;DHT22;334;48.808;9.222;2022-08-03T08:56:56;28.70;1.00
702;DHT22;334;48.808;9.222;2022-08-03T08:58:06;28.80;1.00